Time;durP1;ratioP1;P1;durP2;ratioP2;P2;SDS_P1;SDS_P2;PMS_P1;PMS_P2;Temp;Humidity;BMP_temperature;BMP_pressure;BME280_temperature;BME280_humidity;BME280_pressure;Samples;Min_cycle;Max_cycle;Signal;HPM_P1;HPM_P2
2022/09/20 00:01:31;;;;;;;8.85;1.60;;;;;;;9.82;100.00;100902.50;5175281;28;20593;-75
2022/09/20 00:04:03;;;;;;;8.02;1.63;;;;;;;9.76;100.00;100905.28;5173866;28;20522;-75
2022/09/20 00:06:34;;;;;;;11.93;1.83;;;;;;;9.75;100.00;100911.41;5174666;28;20040;-75
2022/09/20 00:09:05;;;;;;;8.23;1.55;;;;;;;9.72;100.00;100910.63;5174645;28;20530;-75
2022/09/20 00:11:35;;;;;;;11.57;1.85;;;;;;;9.79;100.00;100906.97;5163651;28;20506;-76
2022/09/20 00:14:07;;;;;;;10.15;1.55;;;;;;;9.72;100.00;100902.78;5171379;28;20483;-75
2022/09/20 00:16:39;;;;;;;10.98;1.92;;;;;;;9.77;100.00;100908.75;5167338;28;20025;-76
2022/09/20 00:19:17;;;;;;;7.82;1.52;;;;;;;9.86;100.00;100914.56;5176047;28;20088;-75
2022/09/20 00:21:48;;;;;;;14.60;1.90;;;;;;;9.83;100.00;100919.88;5162012;28;20061;-76
2022/09/20 00:24:18;;;;;;;7.35;1.80;;;;;;;9.94;100.00;100911.75;5169511;28;20490;-74
2022/09/20 00:26:48;;;;;;;12.38;1.70;;;;;;;9.82;100.00;100915.56;5171783;28;20412;-74
2022/09/20 00:29:18;;;;;;;10.10;1.73;;;;;;;9.84;100.00;100911.13;5175915;28;20064;-74
2022/09/20 00:31:49;;;;;;;10.07;1.80;;;;;;;9.86;100.00;100911.94;5169487;28;20215;-75
2022/09/20 00:37:08;;;;;;;12.70;1.92;;;;;;;9.88;100.00;100923.25;5203943;23;20041;-70
2022/09/20 00:39:38;;;;;;;10.45;1.85;;;;;;;9.79;100.00;100920.88;5184951;28;20038;-70
2022/09/20 00:42:13;;;;;;;10.55;1.83;;;;;;;9.81;100.00;100916.44;5187030;28;20033;-71
2022/09/20 00:44:55;;;;;;;13.07;2.47;;;;;;;9.82;100.00;100920.78;5189927;28;20471;-71
2022/09/20 00:47:45;;;;;;;9.95;1.88;;;;;;;9.86;100.00;100914.56;5188746;28;20025;-71
2022/09/20 00:50:39;;;;;;;12.57;1.90;;;;;;;9.78;100.00;100923.50;5188675;28;20026;-71
2022/09/20 00:53:16;;;;;;;13.25;2.08;;;;;;;9.84;100.00;100926.81;5183221;28;20030;-71
2022/09/20 00:56:02;;;;;;;13.27;2.10;;;;;;;9.69;100.00;100932.44;5193934;28;20030;-71
2022/09/20 00:58:38;;;;;;;13.27;1.98;;;;;;;9.76;100.00;100933.13;5187189;28;20042;-71
2022/09/20 01:01:08;;;;;;;7.95;1.80;;;;;;;9.69;100.00;100942.03;5189621;28;20029;-71
2022/09/20 01:03:41;;;;;;;7.22;1.40;;;;;;;9.64;100.00;100929.09;5191292;28;20025;-71
2022/09/20 01:06:14;;;;;;;9.23;2.08;;;;;;;9.72;100.00;100939.34;5188867;28;20449;-70
2022/09/20 01:08:48;;;;;;;9.23;2.13;;;;;;;9.67;100.00;100936.84;5181719;28;20121;-71
2022/09/20 01:11:18;;;;;;;12.15;2.15;;;;;;;9.84;100.00;100944.25;5189271;28;20507;-71
2022/09/20 01:13:49;;;;;;;12.85;2.00;;;;;;;9.70;100.00;100941.13;5184254;28;20037;-72
2022/09/20 01:16:20;;;;;;;12.07;2.30;;;;;;;9.61;100.00;100933.53;5191965;28;20036;-71
2022/09/20 01:18:51;;;;;;;8.82;2.03;;;;;;;9.68;100.00;100937.72;5186988;28;20498;-71
2022/09/20 01:21:23;;;;;;;9.65;2.08;;;;;;;9.71;100.00;100938.50;5191272;28;20187;-71
2022/09/20 01:24:06;;;;;;;11.73;1.80;;;;;;;9.68;100.00;100935.94;5180748;28;20083;-71
2022/09/20 01:26:51;;;;;;;13.32;1.80;;;;;;;9.74;100.00;100940.16;5185409;28;20432;-71
2022/09/20 01:29:45;;;;;;;10.18;2.00;;;;;;;9.84;100.00;100939.03;5184060;28;20384;-71
2022/09/20 01:32:21;;;;;;;14.70;2.13;;;;;;;9.84;100.00;100936.41;5187534;28;20632;-71
2022/09/20 01:34:59;;;;;;;14.43;2.00;;;;;;;9.89;100.00;100942.34;5184345;28;20040;-72
2022/09/20 01:37:39;;;;;;;8.48;1.85;;;;;;;9.94;100.00;100938.72;5182847;28;20038;-70
2022/09/20 01:40:22;;;;;;;14.63;2.30;;;;;;;10.02;100.00;100935.94;5181356;28;20519;-71
2022/09/20 01:43:16;;;;;;;12.98;1.88;;;;;;;9.97;100.00;100943.03;5184906;28;20108;-71
2022/09/20 01:45:48;;;;;;;12.15;1.95;;;;;;;9.89;100.00;100935.41;5187886;28;20099;-71
2022/09/20 01:48:38;;;;;;;10.27;1.80;;;;;;;10.05;100.00;100936.72;5180563;28;20029;-71
2022/09/20 01:51:21;;;;;;;8.98;1.77;;;;;;;10.06;100.00;100938.44;5188187;28;20030;-71
2022/09/20 01:54:29;;;;;;;10.15;1.65;;;;;;;10.05;100.00;100933.25;5176002;28;20514;-71
2022/09/20 01:57:25;;;;;;;10.40;2.08;;;;;;;10.26;100.00;100932.63;5094950;28;20142;-71
2022/09/20 02:00:03;;;;;;;15.30;2.15;;;;;;;10.13;100.00;100939.13;5184894;28;20455;-71
2022/09/20 02:02:48;;;;;;;8.38;2.00;;;;;;;10.16;100.00;100936.41;5188759;28;20060;-72
2022/09/20 02:05:49;;;;;;;8.63;2.03;;;;;;;10.08;100.00;100938.38;5191156;28;20049;-71
2022/09/20 02:08:37;;;;;;;10.30;1.77;;;;;;;10.08;100.00;100946.22;5171744;28;20052;-71
2022/09/20 02:11:32;;;;;;;12.50;2.78;;;;;;;10.12;100.00;100953.06;5184603;28;20476;-71
2022/09/20 02:14:22;;;;;;;10.15;2.08;;;;;;;10.19;100.00;100947.63;5186439;28;20068;-71
2022/09/20 02:16:56;;;;;;;10.70;2.63;;;;;;;10.24;100.00;100957.94;5182264;28;20061;-71
2022/09/20 02:19:32;;;;;;;12.40;2.85;;;;;;;10.33;100.00;100947.25;5189145;28;20069;-71
2022/09/20 02:22:24;;;;;;;13.82;3.65;;;;;;;10.23;100.00;100953.63;5188110;28;20133;-71
2022/09/20 02:25:13;;;;;;;13.68;4.47;;;;;;;10.37;100.00;100954.09;5176387;28;20026;-71
2022/09/20 02:28:02;;;;;;;15.15;5.07;;;;;;;10.39;100.00;100957.50;5184717;28;20121;-71
2022/09/20 02:30:32;;;;;;;15.18;5.45;;;;;;;10.51;100.00;100954.56;5186067;28;20022;-71
2022/09/20 02:33:17;;;;;;;15.83;5.97;;;;;;;10.54;100.00;100959.69;5188354;28;20029;-71
2022/09/20 02:36:06;;;;;;;16.40;5.75;;;;;;;10.46;100.00;100964.25;5190198;28;20276;-71
2022/09/20 02:38:57;;;;;;;15.55;5.68;;;;;;;10.49;100.00;100966.81;5179853;28;20041;-71
2022/09/20 02:41:41;;;;;;;19.75;6.57;;;;;;;10.60;100.00;100959.50;5186257;28;20031;-71
2022/09/20 02:44:17;;;;;;;18.13;5.70;;;;;;;10.52;100.00;100957.09;5187486;28;20029;-71
2022/09/20 02:47:15;;;;;;;15.98;5.97;;;;;;;10.47;100.00;100961.63;5189845;28;20262;-71
2022/09/20 02:50:00;;;;;;;13.80;6.22;;;;;;;10.63;100.00;100970.72;5189162;28;20075;-71
2022/09/20 02:52:49;;;;;;;19.08;6.28;;;;;;;10.58;100.00;100970.00;5181788;28;20112;-71
2022/09/20 02:55:33;;;;;;;19.00;7.38;;;;;;;10.55;100.00;100969.22;5177041;28;20069;-71
2022/09/20 02:58:31;;;;;;;21.02;7.80;;;;;;;10.70;100.00;100968.78;5187409;28;20057;-71
2022/09/20 03:01:16;;;;;;;18.02;6.75;;;;;;;10.64;100.00;100982.88;5185185;28;20069;-72
2022/09/20 03:04:13;;;;;;;19.33;7.43;;;;;;;10.64;100.00;100977.66;5186394;28;20026;-72
2022/09/20 03:07:02;;;;;;;19.60;7.45;;;;;;;10.58;100.00;100979.59;5184790;28;20025;-71
2022/09/20 03:09:42;;;;;;;23.33;8.05;;;;;;;10.72;100.00;100970.44;5176249;28;20041;-71
2022/09/20 03:12:53;;;;;;;19.23;8.20;;;;;;;10.75;100.00;100975.59;5189488;28;20029;-71
2022/09/20 03:15:34;;;;;;;21.83;8.85;;;;;;;10.67;100.00;100972.34;5175253;28;20037;-71
2022/09/20 03:18:13;;;;;;;19.52;7.97;;;;;;;10.67;100.00;100974.13;5185146;28;20037;-71
2022/09/20 03:21:14;;;;;;;24.88;9.52;;;;;;;10.60;100.00;100973.44;5189514;28;20383;-71
2022/09/20 03:23:53;;;;;;;25.55;9.90;;;;;;;10.73;100.00;100977.41;5180077;28;20483;-71
2022/09/20 03:26:42;;;;;;;22.27;9.43;;;;;;;10.68;100.00;100973.22;5180688;28;20044;-71
2022/09/20 03:29:35;;;;;;;21.15;9.55;;;;;;;10.63;100.00;100978.56;5186664;28;20511;-71
2022/09/20 03:32:46;;;;;;;22.20;10.32;;;;;;;10.71;100.00;100970.50;5187256;28;20030;-71
2022/09/20 03:35:22;;;;;;;24.55;10.23;;;;;;;10.72;100.00;100973.03;5189058;28;20040;-71
2022/09/20 03:38:08;;;;;;;23.05;9.68;;;;;;;10.65;100.00;100978.53;5175411;28;20522;-70
2022/09/20 03:41:13;;;;;;;23.13;10.82;;;;;;;10.64;100.00;100980.28;5181171;28;20033;-71
2022/09/20 03:43:55;;;;;;;19.90;9.95;;;;;;;10.78;100.00;100978.13;5186538;28;20502;-72
2022/09/20 03:46:35;;;;;;;23.10;10.73;;;;;;;10.72;100.00;100988.72;5184097;28;20107;-71
2022/09/20 03:49:27;;;;;;;21.85;9.95;;;;;;;10.71;100.00;100986.19;5182421;28;20581;-71
2022/09/20 03:52:13;;;;;;;21.77;9.45;;;;;;;10.70;100.00;100987.94;5183628;28;20030;-71
2022/09/20 03:55:05;;;;;;;25.15;10.35;;;;;;;10.67;100.00;100984.56;5187884;28;20056;-71
2022/09/20 03:58:09;;;;;;;24.27;9.98;;;;;;;10.75;100.00;100982.56;5182480;28;20060;-71
2022/09/20 04:01:03;;;;;;;21.25;9.10;;;;;;;10.64;100.00;100985.50;5180104;28;20033;-71
2022/09/20 04:03:56;;;;;;;20.35;9.35;;;;;;;10.64;100.00;100984.63;5179673;28;20072;-70
2022/09/20 04:06:39;;;;;;;21.15;9.95;;;;;;;10.54;100.00;100988.44;5182946;28;20112;-70
2022/09/20 04:09:26;;;;;;;25.05;9.65;;;;;;;10.62;100.00;100987.31;5186851;28;20301;-71
2022/09/20 04:12:16;;;;;;;27.92;10.00;;;;;;;10.66;100.00;100998.53;5182232;28;20028;-70
2022/09/20 04:15:04;;;;;;;26.13;9.30;;;;;;;10.53;100.00;101000.63;5185950;28;20535;-71
2022/09/20 04:17:51;;;;;;;23.02;9.23;;;;;;;10.44;100.00;100998.28;5187971;28;20395;-70
2022/09/20 04:20:55;;;;;;;28.05;9.38;;;;;;;10.57;100.00;101009.25;5184014;28;20026;-71
2022/09/20 04:23:49;;;;;;;22.33;9.13;;;;;;;10.67;100.00;101002.88;5148266;28;20037;-71
2022/09/20 04:26:26;;;;;;;24.73;9.50;;;;;;;10.64;100.00;101013.38;5185166;28;20696;-71
2022/09/20 04:29:07;;;;;;;27.17;10.07;;;;;;;10.58;100.00;101010.97;5195361;28;20025;-71
2022/09/20 04:31:45;;;;;;;28.73;11.00;;;;;;;10.43;100.00;101012.25;5192686;28;20033;-71
2022/09/20 04:37:26;;;;;;;28.48;12.25;;;;;;;10.56;100.00;101007.53;5181913;28;20502;-71
2022/09/20 04:40:14;;;;;;;25.52;12.40;;;;;;;10.66;100.00;101015.06;5190350;28;20139;-71
2022/09/20 04:43:10;;;;;;;24.17;12.13;;;;;;;10.59;100.00;101018.78;5192005;28;20106;-71
2022/09/20 04:46:00;;;;;;;27.60;11.55;;;;;;;10.59;100.00;101017.91;5187926;28;20025;-71
2022/09/20 04:49:01;;;;;;;27.48;11.40;;;;;;;10.54;100.00;101014.56;5181681;28;20149;-71
2022/09/20 04:52:03;;;;;;;25.65;11.10;;;;;;;10.53;100.00;101025.91;5184002;28;20092;-70
2022/09/20 04:55:02;;;;;;;19.17;10.95;;;;;;;10.59;100.00;101020.50;5176080;28;20565;-71
2022/09/20 04:57:56;;;;;;;25.10;10.98;;;;;;;10.59;100.00;101021.38;5100024;28;20462;-72
2022/09/20 05:00:49;;;;;;;24.42;11.48;;;;;;;10.50;100.00;101023.41;5176253;28;20473;-71
2022/09/20 05:03:40;;;;;;;24.67;11.20;;;;;;;10.55;100.00;101031.97;5181168;28;20583;-71
2022/09/20 05:06:44;;;;;;;22.60;11.13;;;;;;;10.59;100.00;101033.56;5181196;28;20037;-71
2022/09/20 05:09:57;;;;;;;23.58;11.25;;;;;;;10.66;100.00;101033.38;5183433;28;20146;-71
2022/09/20 05:13:04;;;;;;;27.08;11.32;;;;;;;10.67;100.00;101031.63;5182673;28;20274;-71
2022/09/20 05:15:56;;;;;;;28.13;11.20;;;;;;;10.48;100.00;101031.25;5187378;28;20021;-70
2022/09/20 05:19:03;;;;;;;28.50;11.50;;;;;;;10.39;100.00;101035.91;5176102;28;20029;-71
2022/09/20 05:21:49;;;;;;;28.52;10.85;;;;;;;10.32;100.00;101045.66;5178820;28;20495;-70
2022/09/20 05:24:45;;;;;;;25.65;10.82;;;;;;;10.45;100.00;101049.66;5170856;28;20411;-71
2022/09/20 05:27:45;;;;;;;26.20;11.13;;;;;;;10.55;100.00;101050.25;5176361;28;20617;-71
2022/09/20 05:30:33;;;;;;;22.15;10.27;;;;;;;10.57;100.00;101058.91;5178172;28;20033;-71
2022/09/20 05:33:11;;;;;;;21.33;10.43;;;;;;;10.56;100.00;101049.34;5187656;28;20032;-71
2022/09/20 05:36:07;;;;;;;24.73;10.15;;;;;;;10.60;100.00;101054.47;5188345;28;20512;-71
2022/09/20 05:39:26;;;;;;;25.83;10.18;;;;;;;10.67;100.00;101062.97;5186165;28;20436;-71
2022/09/20 05:42:18;;;;;;;28.27;11.05;;;;;;;10.66;100.00;101058.66;5105467;29;20038;-71
2022/09/20 05:45:06;;;;;;;25.88;11.10;;;;;;;10.65;100.00;101054.34;5101708;29;20067;-71
2022/09/20 05:47:56;;;;;;;26.63;11.13;;;;;;;10.61;100.00;101063.13;5174136;28;20095;-71
2022/09/20 05:50:35;;;;;;;32.72;12.50;;;;;;;10.74;100.00;101054.06;5185340;28;20034;-72
2022/09/20 05:53:06;;;;;;;35.42;12.90;;;;;;;10.75;100.00;101055.78;5185635;28;20030;-71
2022/09/20 05:55:42;;;;;;;31.93;12.60;;;;;;;10.60;100.00;101069.25;5193262;28;20040;-71
2022/09/20 05:58:34;;;;;;;37.22;13.30;;;;;;;10.67;100.00;101062.97;5188704;28;20295;-71
2022/09/20 06:01:12;;;;;;;28.40;12.05;;;;;;;10.79;100.00;101073.06;5186965;28;20030;-70
2022/09/20 06:03:53;;;;;;;29.40;12.43;;;;;;;10.83;100.00;101066.88;5189565;28;20025;-72
2022/09/20 06:06:38;;;;;;;27.25;12.10;;;;;;;10.74;100.00;101075.84;5183819;28;20082;-71
2022/09/20 06:09:21;;;;;;;27.27;12.25;;;;;;;10.81;100.00;101066.91;5188762;28;20430;-71
2022/09/20 06:12:26;;;;;;;27.13;11.85;;;;;;;10.81;100.00;101071.28;5183717;28;20072;-71
2022/09/20 06:15:04;;;;;;;30.95;11.85;;;;;;;10.99;100.00;101079.44;5157011;28;20117;-71
2022/09/20 06:17:48;;;;;;;29.58;12.15;;;;;;;10.96;100.00;101081.28;5186586;28;20084;-71
2022/09/20 06:20:34;;;;;;;26.10;11.20;;;;;;;10.72;100.00;101080.22;5180908;28;20100;-71
2022/09/20 06:23:04;;;;;;;25.17;10.63;;;;;;;10.85;100.00;101083.38;5176788;28;20669;-70
2022/09/20 06:25:47;;;;;;;26.83;12.13;;;;;;;10.94;100.00;101083.09;5176289;28;20034;-71
2022/09/20 06:28:20;;;;;;;30.02;12.82;;;;;;;11.06;100.00;101084.47;5185896;28;20487;-71
2022/09/20 06:30:52;;;;;;;30.25;11.40;;;;;;;11.00;100.00;101088.19;5182801;28;20113;-71
2022/09/20 06:33:24;;;;;;;26.77;11.90;;;;;;;10.93;100.00;101086.63;5190706;28;20138;-71
2022/09/20 06:42:09;;;;;;;22.80;11.35;;;;;;;11.12;100.00;101093.91;5180233;28;20048;-73
2022/09/20 06:44:42;;;;;;;27.27;11.35;;;;;;;11.09;100.00;101094.81;5175207;28;20037;-74
2022/09/20 06:47:13;;;;;;;21.48;10.80;;;;;;;11.03;100.00;101095.03;5176103;28;20025;-74
2022/09/20 06:49:45;;;;;;;27.17;11.07;;;;;;;11.15;100.00;101106.88;5177938;28;20133;-73
2022/09/20 06:52:18;;;;;;;23.45;10.93;;;;;;;11.17;100.00;101113.78;5176039;28;20033;-74
2022/09/20 06:54:53;;;;;;;26.23;11.75;;;;;;;11.25;100.00;101111.78;5172747;28;20026;-74
2022/09/20 06:57:35;;;;;;;24.23;11.43;;;;;;;11.28;100.00;101116.09;5175069;28;20025;-73
2022/09/20 07:00:09;;;;;;;24.30;10.88;;;;;;;11.18;100.00;101122.47;5176385;28;20061;-73
2022/09/20 07:02:39;;;;;;;23.80;10.77;;;;;;;11.22;100.00;101121.47;5179754;28;20503;-73
2022/09/20 07:05:14;;;;;;;24.60;11.02;;;;;;;11.23;100.00;101124.06;5186077;28;20026;-73
2022/09/20 07:07:46;;;;;;;25.45;11.40;;;;;;;11.28;100.00;101119.53;5177077;28;20107;-74
2022/09/20 07:10:16;;;;;;;21.95;10.27;;;;;;;11.31;100.00;101126.47;5177765;28;20069;-74
2022/09/20 07:12:47;;;;;;;22.25;10.88;;;;;;;11.22;100.00;101122.34;5178149;28;20545;-73
2022/09/20 07:15:21;;;;;;;21.08;10.23;;;;;;;11.22;100.00;101122.34;5178336;28;20061;-74
2022/09/20 07:17:52;;;;;;;23.45;10.27;;;;;;;11.37;100.00;101127.13;5172479;28;20022;-74
2022/09/20 07:20:22;;;;;;;21.52;10.50;;;;;;;11.45;100.00;101125.13;5177297;28;20357;-74
2022/09/20 07:22:52;;;;;;;23.65;9.88;;;;;;;11.52;100.00;101131.91;5178252;28;20307;-73
2022/09/20 07:25:23;;;;;;;16.13;8.57;;;;;;;11.53;100.00;101132.75;5176663;28;20438;-74
2022/09/20 07:27:53;;;;;;;20.00;8.07;;;;;;;11.41;100.00;101128.75;5175085;28;20029;-73
2022/09/20 07:30:24;;;;;;;21.35;8.13;;;;;;;11.52;100.00;101128.41;5175703;28;20487;-73
2022/09/20 07:32:54;;;;;;;15.73;8.13;;;;;;;11.56;100.00;101133.56;5176150;28;20022;-74
2022/09/20 07:35:24;;;;;;;17.77;8.43;;;;;;;11.44;100.00;101130.44;5180670;28;20025;-74
2022/09/20 07:37:56;;;;;;;18.30;8.95;;;;;;;11.59;100.00;101136.06;5174919;28;20018;-73
2022/09/20 07:40:27;;;;;;;16.80;8.20;;;;;;;11.47;100.00;101144.25;5176738;28;20426;-73
2022/09/20 07:42:57;;;;;;;16.92;8.25;;;;;;;11.53;100.00;101138.84;5180632;28;20024;-74
2022/09/20 07:45:28;;;;;;;20.15;8.85;;;;;;;11.73;100.00;101141.75;5183531;28;20028;-74
2022/09/20 07:48:01;;;;;;;17.27;8.57;;;;;;;11.69;100.00;101144.50;5181060;28;20398;-74
2022/09/20 07:50:32;;;;;;;18.75;8.85;;;;;;;11.79;100.00;101141.53;5183672;28;20499;-74
2022/09/20 07:53:03;;;;;;;16.10;8.88;;;;;;;11.85;100.00;101140.50;5187596;28;20479;-74
2022/09/20 07:55:34;;;;;;;20.95;9.27;;;;;;;11.93;100.00;101149.84;5183943;28;20045;-72
2022/09/20 07:58:04;;;;;;;16.23;8.80;;;;;;;11.91;100.00;101149.03;5184528;28;20018;-74
2022/09/20 08:00:35;;;;;;;16.27;7.47;;;;;;;11.71;100.00;101154.03;5185548;28;20029;-73
2022/09/20 08:03:05;;;;;;;16.10;7.32;;;;;;;11.88;100.00;101161.34;5188149;28;20037;-73
2022/09/20 08:05:35;;;;;;;16.23;7.88;;;;;;;11.73;100.00;101164.44;5185636;28;20399;-73
2022/09/20 08:08:06;;;;;;;13.38;6.75;;;;;;;11.74;100.00;101166.16;5185338;28;20112;-71
2022/09/20 08:10:39;;;;;;;16.15;7.32;;;;;;;11.66;100.00;101169.03;5186728;28;20041;-74
2022/09/20 08:13:10;;;;;;;12.40;6.68;;;;;;;11.86;100.00;101166.66;5184451;28;20026;-74
2022/09/20 08:15:42;;;;;;;12.00;6.45;;;;;;;11.91;100.00;101167.34;5185206;28;20053;-74
2022/09/20 08:18:13;;;;;;;15.20;6.45;;;;;;;12.07;100.00;101173.81;5189088;28;20026;-74
2022/09/20 08:20:43;;;;;;;12.50;5.30;;;;;;;12.09;100.00;101172.00;5190757;28;20033;-74
2022/09/20 08:23:14;;;;;;;12.07;5.78;;;;;;;12.16;100.00;101176.13;5185226;28;20018;-74
2022/09/20 08:25:44;;;;;;;13.98;5.90;;;;;;;12.23;100.00;101182.03;5184487;28;20052;-74
2022/09/20 08:28:14;;;;;;;10.82;5.18;;;;;;;12.20;100.00;101185.63;5178406;28;20041;-74
2022/09/20 08:30:44;;;;;;;10.13;5.00;;;;;;;12.86;100.00;101188.63;5177676;28;20534;-73
2022/09/20 08:33:15;;;;;;;7.65;4.35;;;;;;;13.30;100.00;101185.25;5178918;28;20065;-74
2022/09/20 08:35:47;;;;;;;8.65;4.32;;;;;;;13.51;100.00;101189.72;5181036;28;20112;-74
2022/09/20 08:38:18;;;;;;;10.27;4.88;;;;;;;13.30;100.00;101187.88;5178924;28;20030;-74
2022/09/20 08:40:48;;;;;;;7.28;3.30;;;;;;;13.45;100.00;101185.56;5180616;28;20111;-74
2022/09/20 08:43:20;;;;;;;7.45;4.20;;;;;;;13.19;100.00;101192.66;5176834;28;20463;-73
2022/09/20 08:45:51;;;;;;;8.70;4.40;;;;;;;13.85;97.66;101192.75;5179276;28;20026;-75
2022/09/20 08:48:27;;;;;;;9.85;4.47;;;;;;;14.38;95.29;101186.22;5178796;28;20056;-74
2022/09/20 08:51:01;;;;;;;7.88;4.60;;;;;;;14.30;92.68;101193.59;5180629;28;20022;-74
2022/09/20 08:53:32;;;;;;;8.18;4.13;;;;;;;14.50;93.33;101191.00;5181514;28;20252;-74
2022/09/20 08:56:05;;;;;;;6.40;3.88;;;;;;;14.49;93.16;101199.81;5180518;28;20546;-73
2022/09/20 08:58:36;;;;;;;8.88;4.10;;;;;;;14.60;92.92;101195.81;5178280;28;20034;-74
2022/09/20 09:01:06;;;;;;;7.15;3.90;;;;;;;15.38;91.92;101195.84;5179504;28;20570;-74
2022/09/20 09:03:37;;;;;;;5.50;3.42;;;;;;;14.82;90.63;101203.66;5180472;28;20030;-74
2022/09/20 09:06:13;;;;;;;5.68;3.58;;;;;;;14.69;91.34;101202.47;5180034;28;20393;-73
2022/09/20 09:08:45;;;;;;;5.60;3.30;;;;;;;14.67;93.11;101209.56;5177690;28;20503;-73
2022/09/20 09:11:17;;;;;;;8.02;3.60;;;;;;;14.52;94.93;101203.19;5180281;28;20080;-74
2022/09/20 09:14:03;;;;;;;7.78;3.47;;;;;;;14.97;92.55;101209.09;5180178;28;20022;-74
2022/09/20 09:16:34;;;;;;;4.82;3.08;;;;;;;14.69;92.85;101211.22;5176609;28;20049;-73
2022/09/20 09:19:24;;;;;;;7.38;3.17;;;;;;;14.43;94.03;101215.84;5178619;28;20450;-73
2022/09/20 09:21:57;;;;;;;8.10;2.95;;;;;;;14.93;91.37;101218.94;5176039;28;20033;-74
2022/09/20 09:24:30;;;;;;;6.28;2.88;;;;;;;14.83;92.06;101214.13;5180921;28;20068;-74
2022/09/20 09:27:06;;;;;;;5.38;2.72;;;;;;;15.30;92.68;101216.44;5180536;28;20492;-73
2022/09/20 09:29:49;;;;;;;6.78;3.47;;;;;;;15.44;89.80;101216.66;5178344;28;20021;-74
2022/09/20 09:32:30;;;;;;;7.03;3.50;;;;;;;14.91;90.52;101222.53;5174532;28;20018;-74
2022/09/20 09:35:29;;;;;;;9.60;3.15;;;;;;;14.61;92.18;101229.09;5179736;28;20033;-74
2022/09/20 09:38:01;;;;;;;6.47;2.75;;;;;;;14.83;94.37;101217.59;5175896;28;20021;-74
2022/09/20 09:40:32;;;;;;;7.95;3.08;;;;;;;14.87;91.33;101229.69;5184484;28;20025;-74
2022/09/20 09:43:03;;;;;;;5.38;2.70;;;;;;;14.91;91.42;101225.16;5182874;28;20047;-74
2022/09/20 09:45:39;;;;;;;10.95;3.05;;;;;;;14.79;92.31;101219.56;5177882;28;20034;-74
2022/09/20 09:48:17;;;;;;;4.55;2.33;;;;;;;15.02;92.36;101218.50;5177066;28;20358;-74
2022/09/20 09:50:47;;;;;;;5.55;2.35;;;;;;;15.24;90.49;101214.03;5180722;28;20152;-74
2022/09/20 09:53:21;;;;;;;4.55;2.00;;;;;;;14.92;89.70;101234.78;5184486;28;20179;-74
2022/09/20 09:56:32;;;;;;;7.32;2.00;;;;;;;15.02;89.97;101223.78;5183782;28;20460;-74
2022/09/20 09:59:29;;;;;;;7.07;2.28;;;;;;;14.88;91.33;101228.78;5175868;28;20044;-74
2022/09/20 10:02:15;;;;;;;5.20;1.95;;;;;;;14.78;92.79;101226.59;5177108;28;20064;-74
2022/09/20 10:04:55;;;;;;;5.38;1.60;;;;;;;14.73;88.27;101235.63;5178973;28;20285;-72
2022/09/20 10:07:43;;;;;;;5.75;2.15;;;;;;;14.90;89.42;101232.22;5172521;28;20033;-74
2022/09/20 10:10:40;;;;;;;3.00;1.60;;;;;;;14.86;87.62;101235.88;5178450;28;20033;-74
2022/09/20 10:13:21;;;;;;;;;;;;;;;14.63;89.06;101231.66;5177252;28;20076;-73
2022/09/20 10:16:21;;;;;;;5.68;1.70;;;;;;;14.16;89.44;101241.50;5175263;28;19979;-74
2022/09/20 10:19:05;;;;;;;12.02;1.58;;;;;;;14.52;90.06;101236.50;5174218;28;20060;-74
2022/09/20 10:21:55;;;;;;;3.30;1.48;;;;;;;14.51;89.52;101240.06;5177179;28;20022;-73
2022/09/20 10:24:29;;;;;;;3.95;1.38;;;;;;;14.43;89.21;101232.47;5181500;28;20107;-76
2022/09/20 10:27:13;;;;;;;3.45;1.45;;;;;;;14.53;88.96;101233.81;5176543;28;20080;-75
2022/09/20 10:30:00;;;;;;;3.03;1.50;;;;;;;14.42;89.84;101233.41;5176548;28;20034;-75
2022/09/20 10:32:44;;;;;;;4.72;1.55;;;;;;;14.64;89.07;101220.22;5176339;28;20038;-75
2022/09/20 10:35:27;;;;;;;4.28;1.70;;;;;;;14.70;87.87;101231.34;5181938;28;20057;-75
2022/09/20 10:38:04;;;;;;;2.85;1.70;;;;;;;14.91;86.48;101230.44;5176632;28;20022;-75
2022/09/20 10:43:51;;;;;;;4.22;1.10;;;;;;;15.07;85.07;101221.81;5174579;28;20108;-74
2022/09/20 10:46:30;;;;;;;2.85;1.40;;;;;;;15.04;87.21;101221.94;5175060;28;20084;-74
2022/09/20 10:49:23;;;;;;;3.70;1.50;;;;;;;14.84;83.86;101219.31;5175769;28;20037;-74
2022/09/20 10:52:23;;;;;;;2.83;1.23;;;;;;;14.81;86.07;101217.72;5173942;28;20030;-74
2022/09/20 10:55:15;;;;;;;2.83;1.10;;;;;;;14.61;84.54;101217.72;5176446;28;20431;-72
2022/09/20 10:57:54;;;;;;;4.13;1.35;;;;;;;14.80;89.42;101216.88;5176669;28;20211;-74
2022/09/20 11:00:42;;;;;;;4.32;1.30;;;;;;;14.77;86.12;101218.78;5175003;28;20546;-74
2022/09/20 11:03:51;;;;;;;2.55;1.00;;;;;;;14.52;85.65;101218.09;5176891;28;20030;-74
2022/09/20 11:06:25;;;;;;;3.42;1.13;;;;;;;14.48;84.78;101219.13;5173511;28;20065;-74
2022/09/20 11:09:00;;;;;;;3.90;1.33;;;;;;;14.65;89.26;101220.16;5181615;28;20094;-74
2022/09/20 11:11:41;;;;;;;2.40;1.00;;;;;;;14.57;85.79;101224.03;5180371;28;20060;-73
2022/09/20 11:14:31;;;;;;;1.70;0.98;;;;;;;14.72;83.30;101226.88;5178977;28;20029;-74
2022/09/20 11:17:30;;;;;;;3.22;0.90;;;;;;;14.62;83.61;101216.81;5176777;28;20121;-74
2022/09/20 11:20:16;;;;;;;1.85;1.00;;;;;;;14.90;85.73;101215.56;5170836;28;20052;-73
2022/09/20 11:22:48;;;;;;;2.38;0.98;;;;;;;14.95;85.09;101221.47;5175843;28;20040;-73
2022/09/20 11:25:36;;;;;;;1.92;0.80;;;;;;;14.74;83.28;101221.56;5176207;28;20530;-74
2022/09/20 11:28:39;;;;;;;5.68;1.05;;;;;;;14.97;83.29;101227.53;5178324;28;20072;-73
2022/09/20 11:31:12;;;;;;;2.97;1.20;;;;;;;14.90;82.69;101232.22;5178769;28;20040;-74
2022/09/20 11:33:48;;;;;;;1.80;0.90;;;;;;;14.91;82.81;101223.41;5177775;28;20164;-74
2022/09/20 11:36:27;;;;;;;2.47;0.85;;;;;;;15.02;80.32;101231.69;5178594;28;20112;-74
2022/09/20 11:39:19;;;;;;;3.10;0.88;;;;;;;15.18;80.20;101227.47;5178136;28;20065;-74
2022/09/20 11:41:53;;;;;;;2.63;0.70;;;;;;;15.06;78.00;101222.75;5173245;28;20022;-75
2022/09/20 11:44:24;;;;;;;1.63;0.50;;;;;;;15.05;76.85;101223.63;5176780;28;20030;-73
2022/09/20 11:47:08;;;;;;;2.90;0.70;;;;;;;15.26;78.02;101225.34;5177014;28;20053;-74
2022/09/20 11:49:56;;;;;;;1.35;0.60;;;;;;;15.38;79.90;101222.19;5176223;28;20030;-75
2022/09/20 11:52:28;;;;;;;1.83;0.77;;;;;;;15.62;80.33;101225.50;5175868;28;20028;-76
2022/09/20 11:55:01;;;;;;;3.33;0.50;;;;;;;15.68;80.40;101226.06;5181070;28;20030;-75
2022/09/20 11:57:31;;;;;;;2.08;0.68;;;;;;;15.56;77.57;101231.06;5177615;28;20030;-75
2022/09/20 12:00:06;;;;;;;0.98;0.60;;;;;;;15.42;76.73;101221.16;5176635;28;20676;-75
2022/09/20 12:02:51;;;;;;;1.87;0.70;;;;;;;15.11;77.86;101220.75;5178046;28;20026;-73
2022/09/20 12:05:37;;;;;;;1.10;0.60;;;;;;;15.31;79.84;101223.41;5173650;28;20030;-73
2022/09/20 12:08:23;;;;;;;2.22;0.70;;;;;;;15.19;80.43;101226.53;5175994;28;20492;-73
2022/09/20 12:11:03;;;;;;;2.75;0.82;;;;;;;15.28;79.33;101217.38;5180234;28;20041;-70
2022/09/20 12:13:37;;;;;;;3.67;0.60;;;;;;;15.30;81.05;101226.09;5178301;28;20041;-73
2022/09/20 12:16:41;;;;;;;2.47;0.63;;;;;;;15.22;84.29;101229.03;5178928;28;20454;-73
2022/09/20 12:19:32;;;;;;;2.28;1.00;;;;;;;15.29;85.97;101224.38;5180324;28;20035;-73
2022/09/20 12:22:03;;;;;;;2.92;0.70;;;;;;;15.46;82.26;101225.34;5169619;28;20101;-74
2022/09/20 12:24:39;;;;;;;3.28;0.50;;;;;;;15.64;77.44;101227.16;5179800;28;20124;-73
2022/09/20 12:27:29;;;;;;;2.58;0.70;;;;;;;15.41;76.44;101227.34;5175521;28;20018;-74
2022/09/20 12:30:17;;;;;;;2.70;0.80;;;;;;;15.44;75.78;101229.84;5172975;28;20056;-73
2022/09/20 12:32:52;;;;;;;2.40;0.60;;;;;;;15.59;76.49;101220.38;5173216;28;20022;-73
2022/09/20 12:35:59;;;;;;;1.70;0.60;;;;;;;15.37;74.63;101225.75;5170804;28;20021;-74